createdAt,value
2019-01-28T00:01:08.607Z,98569.27
2019-01-28T00:03:35.859Z,98568.52
2019-01-28T00:06:03.081Z,98565.82
2019-01-28T00:08:30.286Z,98568.16
2019-01-28T00:10:57.599Z,98576.95
2019-01-28T00:13:24.785Z,98574.13
2019-01-28T00:15:52.019Z,98575.07
2019-01-28T00:18:19.215Z,98575.07
2019-01-28T00:20:46.434Z,98578.63
2019-01-28T00:23:13.597Z,98579.57
2019-01-28T00:25:40.822Z,98585.27
2019-01-28T00:28:08.066Z,98584.98
2019-01-28T00:30:35.255Z,98588.34
2019-01-28T00:33:02.450Z,98583.38
2019-01-28T00:35:29.627Z,98587.97
2019-01-28T00:37:56.859Z,98594.14
2019-01-28T00:40:24.149Z,98588.91
2019-01-28T00:42:51.482Z,98590.95
2019-01-28T00:45:18.654Z,98591.24
2019-01-28T00:47:45.856Z,98597.79
2019-01-28T00:50:13.038Z,98601.44
2019-01-28T00:52:40.221Z,98603.52
2019-01-28T00:55:08.735Z,98605.94
2019-01-28T00:57:35.919Z,98611.47
2019-01-28T01:00:03.716Z,98609.33
2019-01-28T01:02:30.893Z,98606.91
2019-01-28T01:04:58.153Z,98612.61
2019-01-28T01:07:25.344Z,98611.78
2019-01-28T01:09:52.560Z,98610.20
2019-01-28T01:12:19.745Z,98617.59
2019-01-28T01:14:46.940Z,98615.14
2019-01-28T01:17:14.203Z,98612.52
2019-01-28T01:19:41.380Z,98616.54
2019-01-28T01:22:08.575Z,98618.70
2019-01-28T01:24:35.793Z,98616.63
2019-01-28T01:27:02.982Z,98616.82
2019-01-28T01:29:30.195Z,98615.23
2019-01-28T01:31:57.362Z,98608.68
2019-01-28T01:34:24.590Z,98613.63
2019-01-28T01:36:51.797Z,98610.48
2019-01-28T01:39:18.967Z,98610.84
2019-01-28T01:41:46.180Z,98618.42
2019-01-28T01:44:13.371Z,98614.57
2019-01-28T01:46:40.603Z,98617.27
2019-01-28T01:49:07.776Z,98621.48
2019-01-28T01:51:35.108Z,98616.33
2019-01-28T01:54:02.305Z,98616.25
2019-01-28T01:56:29.536Z,98613.91
2019-01-28T01:58:56.741Z,98611.17
2019-01-28T02:01:23.973Z,98611.17
2019-01-28T02:03:51.148Z,98619.97
2019-01-28T02:06:18.347Z,98620.34
2019-01-28T02:08:45.672Z,98616.25
2019-01-28T02:11:12.870Z,98619.81
2019-01-28T02:13:40.018Z,98627.75
2019-01-28T02:16:07.245Z,98618.66
2019-01-28T02:18:34.456Z,98620.55
2019-01-28T02:21:01.691Z,98619.44
2019-01-28T02:23:28.927Z,98618.12
2019-01-28T02:25:56.132Z,98616.91
2019-01-28T02:28:23.380Z,98619.44
2019-01-28T02:30:50.570Z,98619.44
2019-01-28T02:33:17.823Z,98617.72
2019-01-28T02:35:45.039Z,98623.53
2019-01-28T02:38:12.255Z,98623.53
2019-01-28T02:40:39.447Z,98622.30
2019-01-28T02:43:06.622Z,98619.52
2019-01-28T02:45:33.858Z,98619.03
2019-01-28T02:48:01.082Z,98622.52
2019-01-28T02:50:28.292Z,98624.11
2019-01-28T02:52:55.502Z,98626.89
2019-01-28T02:55:22.707Z,98620.55
2019-01-28T02:57:49.913Z,98628.41
2019-01-28T03:00:19.316Z,98625.06
2019-01-28T03:02:46.461Z,98629.19
2019-01-28T03:05:14.025Z,98623.73
2019-01-28T03:07:41.209Z,98624.11
2019-01-28T03:10:11.990Z,98626.73
2019-01-28T03:12:39.191Z,98624.97
2019-01-28T03:15:06.819Z,98630.58
2019-01-28T03:17:34.089Z,98632.17
2019-01-28T03:20:01.322Z,98630.50
2019-01-28T03:22:28.438Z,98630.13
2019-01-28T03:24:55.630Z,98631.72
2019-01-28T03:27:22.875Z,98626.94
2019-01-28T03:29:50.090Z,98628.25
2019-01-28T03:32:17.258Z,98623.66
2019-01-28T03:34:44.435Z,98625.25
2019-01-28T03:37:11.674Z,98624.88
2019-01-28T03:39:38.861Z,98625.42
2019-01-28T03:42:06.082Z,98622.15
2019-01-28T03:44:33.283Z,98627.22
2019-01-28T03:47:00.486Z,98626.37
2019-01-28T03:49:27.734Z,98624.69
2019-01-28T03:51:55.144Z,98620.30
2019-01-28T03:54:22.357Z,98625.26
2019-01-28T03:56:49.564Z,98625.75
2019-01-28T03:59:16.779Z,98632.22
2019-01-28T04:01:44.003Z,98626.28
2019-01-28T04:04:11.219Z,98626.85
2019-01-28T04:06:38.459Z,98637.70
2019-01-28T04:09:08.081Z,98634.23
2019-01-28T04:11:35.288Z,98632.83
2019-01-28T04:14:02.523Z,98634.59
2019-01-28T04:16:29.722Z,98640.84
2019-01-28T04:18:56.951Z,98637.78
2019-01-28T04:21:24.168Z,98636.36
2019-01-28T04:23:51.410Z,98635.16
2019-01-28T04:26:21.412Z,98640.69
2019-01-28T04:28:48.819Z,98631.97
2019-01-28T04:31:15.989Z,98637.78
2019-01-28T04:33:43.161Z,98636.31
2019-01-28T04:36:10.415Z,98640.81
2019-01-28T04:38:37.564Z,98639.88
2019-01-28T04:41:04.815Z,98629.59
2019-01-28T04:43:32.141Z,98629.39
2019-01-28T04:45:59.334Z,98627.80
2019-01-28T04:48:26.510Z,98626.32
2019-01-28T04:50:53.743Z,98622.88
2019-01-28T04:53:20.986Z,98624.31
2019-01-28T04:55:48.181Z,98620.20
2019-01-28T04:58:15.356Z,98627.24
2019-01-28T05:00:42.577Z,98625.38
2019-01-28T05:03:09.783Z,98628.20
2019-01-28T05:05:36.964Z,98620.70
2019-01-28T05:08:04.237Z,98625.52
2019-01-28T05:10:31.394Z,98623.09
2019-01-28T05:12:58.619Z,98623.09
2019-01-28T05:15:25.940Z,98628.22
2019-01-28T05:17:53.172Z,98624.72
2019-01-28T05:20:20.411Z,98627.20
2019-01-28T05:22:47.602Z,98624.66
2019-01-28T05:25:15.239Z,98626.54
2019-01-28T05:27:42.813Z,98625.31
2019-01-28T05:30:15.588Z,98626.54
2019-01-28T05:32:42.788Z,98629.53
2019-01-28T05:35:11.378Z,98635.21
2019-01-28T05:37:38.822Z,98634.55
2019-01-28T05:40:07.667Z,98636.89
2019-01-28T05:42:34.898Z,98644.27
2019-01-28T05:45:02.111Z,98638.66
2019-01-28T05:47:29.306Z,98644.02
2019-01-28T05:49:56.502Z,98641.77
2019-01-28T05:52:23.695Z,98652.57
2019-01-28T05:54:50.938Z,98644.70
2019-01-28T05:57:18.199Z,98648.27
2019-01-28T05:59:45.395Z,98647.89
2019-01-28T06:02:12.559Z,98654.30
2019-01-28T06:04:39.818Z,98648.97
2019-01-28T06:07:07.082Z,98648.03
2019-01-28T06:09:34.231Z,98649.34
2019-01-28T06:12:01.462Z,98651.79
2019-01-28T06:14:28.661Z,98653.55
2019-01-28T06:16:55.847Z,98648.89
2019-01-28T06:19:23.094Z,98650.20
2019-01-28T06:21:50.316Z,98650.66
2019-01-28T06:24:17.474Z,98648.03
2019-01-28T06:26:44.676Z,98656.39
2019-01-28T06:29:11.844Z,98655.76
2019-01-28T06:31:39.025Z,98657.64
2019-01-28T06:34:06.230Z,98652.83
2019-01-28T06:36:38.016Z,98662.06
2019-01-28T06:39:13.873Z,98662.23
2019-01-28T06:41:41.161Z,98661.41
2019-01-28T06:44:08.318Z,98667.10
2019-01-28T06:46:35.642Z,98662.80
2019-01-28T06:49:02.906Z,98670.67
2019-01-28T06:51:35.510Z,98673.83
2019-01-28T06:54:02.778Z,98676.36
2019-01-28T06:56:30.207Z,98675.22
2019-01-28T06:58:57.432Z,98676.73
2019-01-28T07:01:24.725Z,98678.25
2019-01-28T07:03:51.960Z,98680.25
2019-01-28T07:06:19.169Z,98680.98
2019-01-28T07:08:46.447Z,98688.48
2019-01-28T07:11:13.613Z,98693.81
2019-01-28T07:13:40.899Z,98688.28
2019-01-28T07:16:08.078Z,98700.45
2019-01-28T07:18:35.357Z,98696.52
2019-01-28T07:21:02.547Z,98704.58
2019-01-28T07:23:29.714Z,98708.44
2019-01-28T07:25:56.930Z,98711.91
2019-01-28T07:28:24.144Z,98710.84
2019-01-28T07:30:51.385Z,98713.72
2019-01-28T07:33:18.689Z,98717.28
2019-01-28T07:35:45.943Z,98719.98
2019-01-28T07:38:13.114Z,98727.77
2019-01-28T07:40:40.334Z,98729.28
2019-01-28T07:43:07.571Z,98730.67
2019-01-28T07:45:44.695Z,98729.89
2019-01-28T07:48:05.753Z,98730.75
2019-01-28T07:50:32.927Z,98744.02
2019-01-28T07:53:00.107Z,98738.70
2019-01-28T07:55:27.259Z,98735.78
2019-01-28T07:57:54.466Z,98743.50
2019-01-28T08:00:23.882Z,98750.91
2019-01-28T08:02:51.146Z,98747.34
2019-01-28T08:05:18.358Z,98755.66
2019-01-28T08:07:45.642Z,98751.73
2019-01-28T08:10:13.889Z,98754.84
2019-01-28T08:12:41.060Z,98752.95
2019-01-28T08:15:10.076Z,98765.28
2019-01-28T08:17:37.279Z,98768.67
2019-01-28T08:20:11.469Z,98772.70
2019-01-28T08:22:34.843Z,98780.11
2019-01-28T08:25:02.055Z,98778.80
2019-01-28T08:27:29.283Z,98786.59
2019-01-28T08:29:56.791Z,98788.84
2019-01-28T08:32:26.891Z,98789.45
2019-01-28T08:34:54.062Z,98787.69
2019-01-28T08:37:21.282Z,98793.39
2019-01-28T08:39:48.488Z,98792.48
2019-01-28T08:42:15.671Z,98794.61
2019-01-28T08:44:42.823Z,98794.83
2019-01-28T08:47:10.019Z,98798.22
2019-01-28T08:49:37.199Z,98804.13
2019-01-28T08:52:04.391Z,98802.25
2019-01-28T08:54:31.625Z,98801.43
2019-01-28T08:56:58.799Z,98803.27
2019-01-28T08:59:26.013Z,98803.19
2019-01-28T09:01:53.178Z,98805.73
2019-01-28T09:04:20.447Z,98809.21
2019-01-28T09:06:47.654Z,98807.78
2019-01-28T09:09:14.867Z,98807.91
2019-01-28T09:11:42.060Z,98806.59
2019-01-28T09:14:09.271Z,98810.41
2019-01-28T09:16:36.452Z,98813.52
2019-01-28T09:19:03.821Z,98813.81
2019-01-28T09:21:31.034Z,98820.89
2019-01-28T09:23:58.207Z,98821.02
2019-01-28T09:26:25.476Z,98826.92
2019-01-28T09:28:52.673Z,98829.63
2019-01-28T09:31:19.948Z,98833.47
2019-01-28T09:33:47.118Z,98837.78
2019-01-28T09:36:14.357Z,98837.11
2019-01-28T09:38:41.539Z,98852.28
2019-01-28T09:41:08.717Z,98852.48
2019-01-28T09:43:35.946Z,98852.36
2019-01-28T09:46:03.197Z,98858.17
2019-01-28T09:48:34.337Z,98858.73
2019-01-28T09:50:59.480Z,98863.34
2019-01-28T09:53:29.316Z,98861.22
2019-01-28T09:55:55.844Z,98869.22
2019-01-28T09:58:23.246Z,98865.36
2019-01-28T10:00:50.987Z,98870.02
2019-01-28T10:03:18.221Z,98873.55
2019-01-28T10:05:45.518Z,98879.50
2019-01-28T10:08:12.682Z,98876.23
2019-01-28T10:10:39.977Z,98880.24
2019-01-28T10:13:07.255Z,98888.19
2019-01-28T10:15:34.469Z,98887.07
2019-01-28T10:18:01.670Z,98889.28
2019-01-28T10:20:31.024Z,98892.02
2019-01-28T10:22:58.235Z,98894.45
2019-01-28T10:25:25.419Z,98901.95
2019-01-28T10:27:54.800Z,98902.88
2019-01-28T10:30:24.878Z,98904.64
2019-01-28T10:32:52.091Z,98909.17
2019-01-28T10:35:20.017Z,98907.11
2019-01-28T10:37:47.221Z,98910.03
2019-01-28T10:40:17.598Z,98912.57
2019-01-28T10:42:44.822Z,98909.17
2019-01-28T10:45:12.062Z,98917.97
2019-01-28T10:47:39.271Z,98915.19
2019-01-28T10:50:07.819Z,98917.81
2019-01-28T10:52:35.140Z,98924.30
2019-01-28T10:55:02.315Z,98920.17
2019-01-28T10:57:29.496Z,98928.69
2019-01-28T10:59:56.690Z,98922.91
2019-01-28T11:02:23.885Z,98921.41
2019-01-28T11:04:51.111Z,98929.64
2019-01-28T11:07:18.318Z,98936.04
2019-01-28T11:09:45.644Z,98930.95
2019-01-28T11:12:12.828Z,98933.05
2019-01-28T11:14:40.051Z,98934.28
2019-01-28T11:17:07.300Z,98935.55
2019-01-28T11:19:36.523Z,98933.51
2019-01-28T11:22:04.076Z,98934.17
2019-01-28T11:24:31.459Z,98935.64
2019-01-28T11:26:58.702Z,98942.20
2019-01-28T11:29:25.949Z,98949.27
2019-01-28T11:31:56.495Z,98942.55
2019-01-28T11:34:24.684Z,98945.17
2019-01-28T11:36:52.074Z,98944.42
2019-01-28T11:39:19.412Z,98944.88
2019-01-28T11:41:46.695Z,98947.45
2019-01-28T11:44:14.097Z,98951.38
2019-01-28T11:46:41.487Z,98952.98
2019-01-28T11:49:08.793Z,98960.11
2019-01-28T11:51:35.967Z,98964.98
2019-01-28T11:54:05.304Z,98961.64
2019-01-28T11:56:34.009Z,98962.80
2019-01-28T11:59:01.758Z,98971.76
2019-01-28T12:01:32.286Z,98968.73
2019-01-28T12:04:07.135Z,98972.13
2019-01-28T12:06:34.886Z,98978.77
2019-01-28T12:09:05.785Z,98975.64
2019-01-28T12:11:34.754Z,98985.19
2019-01-28T12:14:09.445Z,98981.23
2019-01-28T12:16:40.251Z,98985.09
2019-01-28T12:19:14.022Z,98991.87
2019-01-28T12:21:36.729Z,98992.05
2019-01-28T12:24:03.945Z,98995.08
2019-01-28T12:26:33.633Z,98997.48
2019-01-28T12:29:03.322Z,98994.73
2019-01-28T12:31:32.495Z,99000.43
2019-01-28T12:34:03.419Z,99005.38
2019-01-28T12:36:30.732Z,98999.62
2019-01-28T12:38:57.936Z,99006.18
2019-01-28T12:41:25.881Z,99006.66
2019-01-28T12:43:53.467Z,99003.79
2019-01-28T12:46:20.726Z,99007.42
2019-01-28T12:48:48.415Z,99011.36
2019-01-28T12:51:16.460Z,99017.06
2019-01-28T12:53:43.718Z,99021.45
2019-01-28T12:56:11.270Z,99021.45
2019-01-28T12:58:38.658Z,99024.63
2019-01-28T13:01:06.796Z,99025.19
2019-01-28T13:03:35.051Z,99030.22
2019-01-28T13:06:04.309Z,99030.81
2019-01-28T13:08:32.586Z,99041.23
2019-01-28T13:11:03.267Z,99043.84
2019-01-28T13:13:34.532Z,99052.84
2019-01-28T13:16:01.794Z,99059.48
2019-01-28T13:18:32.322Z,99059.18
2019-01-28T13:20:59.630Z,99060.34
2019-01-28T13:23:30.066Z,99063.82
2019-01-28T13:25:57.305Z,99063.98
2019-01-28T13:28:25.834Z,99069.82
2019-01-28T13:30:53.336Z,99076.11
2019-01-28T13:33:22.500Z,99083.04
2019-01-28T13:35:49.780Z,99080.72
2019-01-28T13:38:17.004Z,99087.65
2019-01-28T13:40:44.215Z,99087.57
2019-01-28T13:43:11.402Z,99086.41
2019-01-28T13:45:39.504Z,99093.48
2019-01-28T13:48:09.340Z,99094.80
2019-01-28T13:50:36.586Z,99095.89
2019-01-28T13:53:03.754Z,99098.89
2019-01-28T13:55:30.951Z,99106.61
2019-01-28T13:57:58.079Z,99108.93
2019-01-28T14:00:26.727Z,99109.61
2019-01-28T14:02:53.951Z,99113.44
2019-01-28T14:05:21.177Z,99118.69
2019-01-28T14:07:48.442Z,99113.44
2019-01-28T14:10:15.716Z,99118.45
2019-01-28T14:12:42.929Z,99125.39
2019-01-28T14:15:13.921Z,99132.55
2019-01-28T14:17:41.255Z,99137.05
2019-01-28T14:20:11.305Z,99145.44
2019-01-28T14:22:38.495Z,99147.91
2019-01-28T14:25:06.078Z,99155.33
2019-01-28T14:27:33.261Z,99154.02
2019-01-28T14:30:00.451Z,99162.27
2019-01-28T14:32:27.666Z,99168.44
2019-01-28T14:34:54.831Z,99174.21
2019-01-28T14:37:22.143Z,99181.77
2019-01-28T14:39:49.356Z,99178.77
2019-01-28T14:42:16.545Z,99185.33
2019-01-28T14:44:43.840Z,99187.65
2019-01-28T14:47:11.027Z,99190.72
2019-01-28T14:49:38.267Z,99199.05
2019-01-28T14:52:05.465Z,99199.45
2019-01-28T14:54:32.621Z,99202.14
2019-01-28T14:56:59.801Z,99210.78
2019-01-28T14:59:27.003Z,99217.25
2019-01-28T15:01:54.356Z,99221.56
2019-01-28T15:04:21.528Z,99232.59
2019-01-28T15:06:48.768Z,99237.23
2019-01-28T15:09:16.190Z,99245.92
2019-01-28T15:11:43.383Z,99244.23
2019-01-28T15:14:10.581Z,99242.16
2019-01-28T15:16:37.769Z,99254.34
2019-01-28T15:19:04.993Z,99254.89
2019-01-28T15:21:32.227Z,99261.27
2019-01-28T15:23:59.595Z,99267.00
2019-01-28T15:26:26.788Z,99271.83
2019-01-28T15:28:54.015Z,99279.80
2019-01-28T15:31:21.225Z,99279.38
2019-01-28T15:33:48.598Z,99283.80
2019-01-28T15:36:15.926Z,99294.28
2019-01-28T15:38:43.164Z,99297.42
2019-01-28T15:41:10.401Z,99304.59
2019-01-28T15:43:37.585Z,99310.22
2019-01-28T15:46:04.810Z,99323.88
2019-01-28T15:48:32.046Z,99320.08
2019-01-28T15:50:59.243Z,99330.18
2019-01-28T15:53:26.432Z,99334.62
2019-01-28T15:55:53.621Z,99337.31
2019-01-28T15:58:21.064Z,99343.66
2019-01-28T16:00:48.272Z,99354.35
2019-01-28T16:03:15.538Z,99354.13
2019-01-28T16:05:42.690Z,99357.40
2019-01-28T16:08:09.862Z,99371.50
2019-01-28T16:10:37.072Z,99375.59
2019-01-28T16:13:04.373Z,99377.03
2019-01-28T16:15:39.957Z,99379.65
2019-01-28T16:18:09.059Z,99391.83
2019-01-28T16:20:36.379Z,99397.29
2019-01-28T16:23:04.078Z,99399.17
2019-01-28T16:25:31.298Z,99410.58
2019-01-28T16:27:58.631Z,99416.27
2019-01-28T16:30:26.826Z,99421.06
2019-01-28T16:32:54.054Z,99433.30
2019-01-28T16:35:21.278Z,99432.91
2019-01-28T16:37:48.532Z,99437.23
2019-01-28T16:40:17.061Z,99441.70
2019-01-28T16:42:44.287Z,99445.63
2019-01-28T16:45:12.762Z,99451.80
2019-01-28T16:47:39.972Z,99457.42
2019-01-28T16:50:08.335Z,99463.59
2019-01-28T16:52:35.540Z,99472.49
2019-01-28T16:55:02.904Z,99478.56
2019-01-28T16:57:30.087Z,99479.75
2019-01-28T16:59:57.233Z,99489.14
2019-01-28T17:02:24.491Z,99490.59
2019-01-28T17:04:51.665Z,99494.08
2019-01-28T17:07:18.881Z,99502.12
2019-01-28T17:09:46.110Z,99510.69
2019-01-28T17:12:14.357Z,99513.78
2019-01-28T17:14:41.708Z,99518.97
2019-01-28T17:17:08.908Z,99524.59
2019-01-28T17:19:38.255Z,99525.22
2019-01-28T17:22:08.075Z,99530.45
2019-01-28T17:24:42.117Z,99540.13
2019-01-28T17:27:09.636Z,99542.25
2019-01-28T17:29:36.946Z,99542.63
2019-01-28T17:32:04.206Z,99543.23
2019-01-28T17:34:31.402Z,99545.46
2019-01-28T17:36:58.701Z,99557.97
2019-01-28T17:39:25.923Z,99556.98
2019-01-28T17:41:53.175Z,99567.02
2019-01-28T17:44:20.370Z,99573.03
2019-01-28T17:46:47.531Z,99576.31
2019-01-28T17:49:14.746Z,99583.59
2019-01-28T17:51:41.937Z,99580.31
2019-01-28T17:54:09.253Z,99580.91
2019-01-28T17:56:36.434Z,99584.89
2019-01-28T17:59:03.648Z,99585.73
2019-01-28T18:01:30.833Z,99591.89
2019-01-28T18:03:58.027Z,99598.61
2019-01-28T18:06:25.285Z,99589.44
2019-01-28T18:08:52.470Z,99589.44
2019-01-28T18:11:19.664Z,99598.11
2019-01-28T18:13:46.910Z,99608.74
2019-01-28T18:16:14.148Z,99605.64
2019-01-28T18:18:41.314Z,99609.63
2019-01-28T18:21:08.672Z,99610.11
2019-01-28T18:23:45.949Z,99615.30
2019-01-28T18:26:13.242Z,99618.89
2019-01-28T18:28:40.462Z,99621.95
2019-01-28T18:31:07.794Z,99622.34
2019-01-28T18:33:35.011Z,99620.76
2019-01-28T18:36:05.734Z,99632.05
2019-01-28T18:38:31.356Z,99637.06
2019-01-28T18:40:58.531Z,99644.86
2019-01-28T18:43:25.754Z,99644.86
2019-01-28T18:45:52.943Z,99645.89
2019-01-28T18:48:20.205Z,99648.45
2019-01-28T18:50:47.389Z,99656.38
2019-01-28T18:53:14.570Z,99657.15
2019-01-28T18:55:41.824Z,99662.53
2019-01-28T18:58:09.158Z,99666.56
2019-01-28T19:00:36.354Z,99674.31
2019-01-28T19:03:03.616Z,99682.09
2019-01-28T19:05:50.396Z,99683.81
2019-01-28T19:08:36.071Z,99696.58
2019-01-28T19:11:29.466Z,99701.62
2019-01-28T19:14:20.254Z,99701.62
2019-01-28T19:17:23.541Z,99705.11
2019-01-28T19:20:09.357Z,99711.17
2019-01-28T19:22:36.648Z,99713.30
2019-01-28T19:25:04.995Z,99724.50
2019-01-28T19:27:33.214Z,99727.12
2019-01-28T19:30:00.766Z,99724.61
2019-01-28T19:32:28.051Z,99736.07
2019-01-28T19:34:55.316Z,99740.61
2019-01-28T19:37:22.528Z,99747.16
2019-01-28T19:39:49.745Z,99752.81
2019-01-28T19:42:16.997Z,99751.70
2019-01-28T19:44:49.981Z,99753.33
2019-01-28T19:47:20.862Z,99765.45
2019-01-28T19:49:53.890Z,99763.34
2019-01-28T19:52:21.098Z,99775.02
2019-01-28T19:54:49.866Z,99779.29
2019-01-28T19:57:17.072Z,99777.25
2019-01-28T19:59:44.294Z,99785.36
2019-01-28T20:02:11.577Z,99787.65
2019-01-28T20:04:39.199Z,99786.34
2019-01-28T20:07:07.040Z,99790.21
2019-01-28T20:09:37.476Z,99790.50
2019-01-28T20:12:04.704Z,99802.48
2019-01-28T20:14:33.442Z,99797.72
2019-01-28T20:17:00.810Z,99808.34
2019-01-28T20:19:27.994Z,99808.33
2019-01-28T20:21:55.294Z,99806.13
2019-01-28T20:24:22.504Z,99807.16
2019-01-28T20:26:49.786Z,99818.14
2019-01-28T20:29:17.002Z,99820.58
2019-01-28T20:31:44.198Z,99829.12
2019-01-28T20:34:11.424Z,99824.86
2019-01-28T20:36:38.659Z,99829.80
2019-01-28T20:39:08.188Z,99826.84
2019-01-28T20:41:35.398Z,99826.42
2019-01-28T20:44:02.724Z,99833.55
2019-01-28T20:46:29.969Z,99834.62
2019-01-28T20:48:57.220Z,99839.86
2019-01-28T20:51:31.891Z,99842.87
2019-01-28T20:53:53.513Z,99850.38
2019-01-28T20:56:20.760Z,99855.57
2019-01-28T20:58:47.975Z,99851.49
2019-01-28T21:01:15.210Z,99858.53
2019-01-28T21:03:42.408Z,99859.84
2019-01-28T21:06:09.816Z,99853.81
2019-01-28T21:08:37.072Z,99856.44
2019-01-28T21:11:04.352Z,99859.45
2019-01-28T21:13:31.676Z,99864.87
2019-01-28T21:15:59.153Z,99865.41
2019-01-28T21:18:26.464Z,99869.86
2019-01-28T21:20:53.731Z,99869.05
2019-01-28T21:23:20.935Z,99880.34
2019-01-28T21:26:00.204Z,99880.34
2019-01-28T21:28:31.629Z,99886.75
2019-01-28T21:31:00.488Z,99886.70
2019-01-28T21:33:28.723Z,99886.36
2019-01-28T21:36:18.015Z,99890.68
2019-01-28T21:38:49.638Z,99892.47
2019-01-28T21:41:22.126Z,99892.91
2019-01-28T21:43:51.628Z,99898.91
2019-01-28T21:46:19.451Z,99905.51
2019-01-28T21:48:47.375Z,99902.64
2019-01-28T21:51:14.798Z,99902.64
2019-01-28T21:53:42.379Z,99911.81
2019-01-28T21:56:10.172Z,99905.27
2019-01-28T21:58:39.308Z,99910.89
2019-01-28T22:01:07.279Z,99913.52
2019-01-28T22:03:34.559Z,99913.21
2019-01-28T22:06:01.813Z,99922.38
2019-01-28T22:08:29.041Z,99918.01
2019-01-28T22:10:58.350Z,99923.98
2019-01-28T22:13:25.685Z,99923.55
2019-01-28T22:15:53.231Z,99923.50
2019-01-28T22:18:20.435Z,99923.84
2019-01-28T22:20:48.027Z,99922.92
2019-01-28T22:23:15.459Z,99920.97
2019-01-28T22:25:42.842Z,99925.25
2019-01-28T22:28:10.060Z,99931.10
2019-01-28T22:30:37.898Z,99940.27
2019-01-28T22:33:08.911Z,99934.69
2019-01-28T22:35:36.530Z,99932.59
2019-01-28T22:38:05.000Z,99936.39
2019-01-28T22:40:32.536Z,99931.59
2019-01-28T22:43:00.173Z,99940.96
2019-01-28T22:45:27.744Z,99940.96
2019-01-28T22:47:55.120Z,99949.21
2019-01-28T22:50:24.076Z,99952.00
2019-01-28T22:52:53.362Z,99953.70
2019-01-28T22:55:22.733Z,99959.81
2019-01-28T22:57:52.200Z,99970.63
2019-01-28T23:00:47.464Z,99969.77
2019-01-28T23:06:06.862Z,99964.13
2019-01-28T23:08:36.272Z,99967.10
2019-01-28T23:11:04.015Z,99965.45
2019-01-28T23:13:33.218Z,99962.43
2019-01-28T23:16:01.535Z,99969.07
2019-01-28T23:18:29.889Z,99970.68
2019-01-28T23:20:59.169Z,99973.05
2019-01-28T23:23:26.654Z,99972.26
2019-01-28T23:25:53.843Z,99974.75
2019-01-28T23:28:21.068Z,99974.61
2019-01-28T23:30:48.290Z,99972.43
2019-01-28T23:33:15.474Z,99982.16
2019-01-28T23:35:42.698Z,99979.16
2019-01-28T23:38:09.918Z,99982.77
2019-01-28T23:40:37.322Z,99986.27
2019-01-28T23:43:07.373Z,99989.66
2019-01-28T23:45:34.922Z,99992.28
2019-01-28T23:48:02.203Z,99993.64
2019-01-28T23:50:29.409Z,99993.64
2019-01-28T23:52:56.816Z,99996.25
2019-01-28T23:55:26.363Z,100003.28
2019-01-28T23:57:56.944Z,99999.02
